Time;durP1;ratioP1;P1;durP2;ratioP2;P2;SDS_P1;SDS_P2;PMS_P1;PMS_P2;Temp;Humidity;BMP_temperature;BMP_pressure;BME280_temperature;BME280_humidity;BME280_pressure;Samples;Min_cycle;Max_cycle;Signal;HPM_P1;HPM_P2
2022/10/17 00:00:55;;;;;;;21.00;3.60;;;;;;;8.77;100.00;101451.81;4935008;28;20433;-89
2022/10/17 00:03:20;;;;;;;16.00;3.43;;;;;;;8.76;100.00;101455.47;4951252;29;20035;-89
2022/10/17 00:05:47;;;;;;;22.20;4.00;;;;;;;8.75;100.00;101444.94;4950451;28;20035;-90
2022/10/17 00:08:14;;;;;;;18.60;3.40;;;;;;;8.81;100.00;101452.41;4930333;29;20381;-90
2022/10/17 00:10:40;;;;;;;17.27;3.40;;;;;;;8.84;100.00;101452.94;4933861;28;20034;-90
2022/10/17 00:13:07;;;;;;;16.92;3.95;;;;;;;8.78;100.00;101456.16;4935586;29;20570;-90
2022/10/17 00:15:32;;;;;;;17.50;3.30;;;;;;;8.71;100.00;101455.03;4935163;28;20043;-89
2022/10/17 00:17:58;;;;;;;12.43;3.30;;;;;;;8.68;100.00;101460.59;4934847;29;20119;-89
2022/10/17 00:20:24;;;;;;;12.35;3.35;;;;;;;8.67;100.00;101461.56;4931643;29;20031;-89
2022/10/17 00:22:49;;;;;;;12.07;2.70;;;;;;;8.71;100.00;101456.81;4947492;29;20035;-88
2022/10/17 00:25:15;;;;;;;23.23;4.95;;;;;;;8.72;100.00;101462.00;4931589;28;20031;-89
2022/10/17 00:27:41;;;;;;;17.88;3.45;;;;;;;8.74;100.00;101453.91;4931671;28;20054;-89
2022/10/17 00:30:11;;;;;;;11.70;3.22;;;;;;;8.79;100.00;101463.16;4934663;29;20118;-89
2022/10/17 00:32:36;;;;;;;19.77;3.30;;;;;;;8.90;100.00;101475.56;4934420;28;20052;-90
2022/10/17 00:35:03;;;;;;;22.13;4.25;;;;;;;9.01;100.00;101479.94;4950302;28;20030;-89
2022/10/17 00:37:32;;;;;;;14.27;2.67;;;;;;;8.97;100.00;101478.53;4966260;28;20090;-88
2022/10/17 00:39:57;;;;;;;17.05;3.50;;;;;;;8.93;100.00;101471.78;4947445;29;20483;-88
2022/10/17 00:42:23;;;;;;;26.47;4.47;;;;;;;8.93;100.00;101461.97;4948098;29;20035;-89
2022/10/17 00:44:49;;;;;;;15.10;2.72;;;;;;;8.94;100.00;101457.47;4941670;28;20032;-89
2022/10/17 00:47:20;;;;;;;20.83;3.60;;;;;;;8.91;100.00;101455.09;4936312;29;20102;-89
2022/10/17 00:49:46;;;;;;;16.70;2.92;;;;;;;8.94;100.00;101457.47;4920989;29;20042;-89
2022/10/17 00:52:21;;;;;;;21.80;4.07;;;;;;;9.03;100.00;101475.31;4937835;29;20122;-89
2022/10/17 00:55:01;;;;;;;18.88;4.75;;;;;;;9.08;100.00;101475.75;4956046;28;20047;-88
2022/10/17 00:57:28;;;;;;;18.83;3.72;;;;;;;9.17;100.00;101492.75;4925128;29;20043;-88
2022/10/17 00:59:57;;;;;;;11.15;3.22;;;;;;;9.24;100.00;101488.56;4957212;29;20027;-88
2022/10/17 01:02:22;;;;;;;22.23;4.68;;;;;;;9.24;100.00;101492.06;4954555;28;20047;-88
2022/10/17 01:04:51;;;;;;;19.48;4.85;;;;;;;9.24;100.00;101484.06;4947033;28;20069;-89
2022/10/17 01:07:16;;;;;;;18.02;4.15;;;;;;;9.27;100.00;101478.50;4928888;29;20063;-90
2022/10/17 01:09:43;;;;;;;27.07;5.50;;;;;;;9.32;100.00;101479.88;4930851;29;20050;-89
2022/10/17 01:12:40;;;;;;;18.85;3.75;;;;;;;9.38;100.00;101487.34;4922176;29;20375;-88
2022/10/17 01:15:43;;;;;;;15.75;3.92;;;;;;;9.46;100.00;101472.38;4930864;28;20836;-90
2022/10/17 01:18:37;;;;;;;17.77;3.67;;;;;;;9.45;100.00;101461.81;4939716;28;20078;-89
2022/10/17 01:21:20;;;;;;;13.93;3.83;;;;;;;9.54;100.00;101463.66;4953158;29;20036;-89
2022/10/17 01:24:01;;;;;;;14.63;4.30;;;;;;;9.59;100.00;101469.41;4921595;29;20287;-88
2022/10/17 01:26:40;;;;;;;16.95;3.67;;;;;;;9.72;100.00;101475.34;4952667;28;20501;-89
2022/10/17 01:29:34;;;;;;;23.40;3.97;;;;;;;9.78;100.00;101473.94;4953033;28;20034;-89
2022/10/17 01:32:23;;;;;;;19.58;3.60;;;;;;;9.83;100.00;101468.19;4925492;29;20038;-88
2022/10/17 01:35:08;;;;;;;16.65;3.90;;;;;;;9.90;100.00;101461.28;4951837;29;20492;-89
2022/10/17 01:37:46;;;;;;;15.27;4.82;;;;;;;9.89;100.00;101448.97;4950473;29;20035;-88
2022/10/17 01:40:19;;;;;;;16.33;3.28;;;;;;;9.89;100.00;101452.47;4937062;29;20070;-89
2022/10/17 01:42:54;;;;;;;17.92;3.55;;;;;;;9.98;100.00;101457.94;4969278;28;20039;-89
2022/10/17 01:45:28;;;;;;;14.60;3.43;;;;;;;9.95;100.00;101469.75;4933626;29;20066;-89
2022/10/17 01:47:57;;;;;;;13.45;2.75;;;;;;;9.96;100.00;101471.41;4936711;29;20295;-89
2022/10/17 01:50:31;;;;;;;25.65;3.65;;;;;;;10.00;100.00;101469.31;4930207;29;20536;-89
2022/10/17 01:53:13;;;;;;;14.70;3.55;;;;;;;10.15;100.00;101462.56;4929005;29;20411;-88
2022/10/17 01:55:42;;;;;;;23.63;3.25;;;;;;;10.15;100.00;101444.72;4934358;29;20083;-89
2022/10/17 01:58:24;;;;;;;8.38;3.28;;;;;;;10.17;100.00;101427.72;4952727;28;20571;-89
2022/10/17 02:00:51;;;;;;;20.55;4.68;;;;;;;10.22;100.00;101417.47;4920891;29;20087;-89
2022/10/17 02:03:19;;;;;;;15.75;3.20;;;;;;;10.23;100.00;101419.13;4965926;28;20026;-89
2022/10/17 02:05:45;;;;;;;11.05;3.00;;;;;;;10.28;100.00;101422.25;4941854;28;20119;-89
2022/10/17 02:08:11;;;;;;;12.23;3.23;;;;;;;10.29;100.00;101415.94;4939046;28;20163;-89
2022/10/17 02:10:48;;;;;;;16.50;2.95;;;;;;;10.26;100.00;101409.03;4941614;29;20085;-89
2022/10/17 02:13:25;;;;;;;10.57;3.10;;;;;;;10.24;100.00;101407.50;4936612;29;20035;-90
2022/10/17 02:16:33;;;;;;;20.23;4.15;;;;;;;10.24;100.00;101412.84;4937552;29;20147;-88
2022/10/17 02:19:15;;;;;;;11.25;3.45;;;;;;;10.26;100.00;101416.19;4939671;29;20063;-89
2022/10/17 02:21:49;;;;;;;18.73;5.25;;;;;;;10.24;100.00;101415.50;4966634;28;20031;-89
2022/10/17 02:24:33;;;;;;;11.63;3.78;;;;;;;10.24;100.00;101415.50;4952860;28;20046;-89
2022/10/17 02:27:11;;;;;;;19.23;4.78;;;;;;;10.34;100.00;101430.53;4936767;29;20035;-89
2022/10/17 02:29:53;;;;;;;17.25;4.00;;;;;;;10.33;100.00;101428.84;4936047;29;20126;-89
2022/10/17 02:32:39;;;;;;;16.48;3.75;;;;;;;10.33;100.00;101423.50;4956761;28;20065;-88
2022/10/17 02:35:08;;;;;;;16.42;5.45;;;;;;;10.33;100.00;101418.16;4960030;28;20062;-89
2022/10/17 02:37:35;;;;;;;16.15;3.88;;;;;;;10.33;100.00;101433.34;4936092;29;20035;-89
2022/10/17 02:40:02;;;;;;;15.52;4.18;;;;;;;10.34;100.00;101419.00;4951909;29;20062;-89
2022/10/17 02:42:29;;;;;;;14.18;4.35;;;;;;;10.39;100.00;101422.06;4936091;29;20510;-88
2022/10/17 02:44:59;;;;;;;7.25;3.63;;;;;;;10.42;100.00;101426.28;4956176;28;20026;-89
2022/10/17 02:47:35;;;;;;;14.45;3.30;;;;;;;10.45;100.00;101418.84;4951824;29;20039;-88
2022/10/17 02:50:01;;;;;;;14.27;3.50;;;;;;;10.46;100.00;101399.16;4940411;29;20508;-89
2022/10/17 02:52:41;;;;;;;19.80;4.53;;;;;;;10.55;100.00;101403.63;4928904;29;20036;-89
2022/10/17 02:55:19;;;;;;;9.98;3.08;;;;;;;10.53;100.00;101400.25;4929193;29;20066;-89
2022/10/17 02:57:54;;;;;;;11.02;4.05;;;;;;;10.56;100.00;101389.28;4935824;29;20542;-88
2022/10/17 03:00:21;;;;;;;19.45;4.30;;;;;;;10.66;100.00;101377.75;4921371;29;20031;-88
2022/10/17 03:02:52;;;;;;;13.48;3.92;;;;;;;10.69;100.00;101374.75;4951780;29;20066;-88
2022/10/17 03:05:23;;;;;;;11.77;3.85;;;;;;;10.69;100.00;101377.44;4935637;29;20035;-88
2022/10/17 03:07:48;;;;;;;9.60;2.80;;;;;;;10.73;100.00;101370.81;4935980;29;20519;-89
2022/10/17 03:10:14;;;;;;;6.38;3.47;;;;;;;10.79;100.00;101364.84;4930349;29;20032;-89
2022/10/17 03:12:40;;;;;;;12.40;3.92;;;;;;;10.77;100.00;101354.34;4946068;29;20063;-88
2022/10/17 03:15:07;;;;;;;19.05;3.42;;;;;;;10.74;100.00;101348.44;4951479;28;20025;-90
2022/10/17 03:17:34;;;;;;;10.25;3.17;;;;;;;10.79;100.00;101356.84;4932799;28;20027;-89
2022/10/17 03:19:59;;;;;;;10.02;2.75;;;;;;;10.80;100.00;101339.84;4952173;28;20031;-89
2022/10/17 03:22:25;;;;;;;7.80;3.00;;;;;;;10.82;100.00;101343.22;4932906;29;20519;-89
2022/10/17 03:24:50;;;;;;;10.03;3.53;;;;;;;10.83;100.00;101352.91;4935923;29;20138;-89
2022/10/17 03:27:16;;;;;;;25.23;4.73;;;;;;;10.85;100.00;101358.94;4952425;28;20187;-89
2022/10/17 03:29:42;;;;;;;9.88;3.17;;;;;;;10.87;100.00;101359.63;4935231;29;20676;-89
2022/10/17 03:32:08;;;;;;;9.10;3.50;;;;;;;10.92;100.00;101361.84;4929785;29;20055;-89
2022/10/17 03:34:35;;;;;;;;;;;;;;;10.96;100.00;101363.25;4938477;29;20047;-88
2022/10/17 03:37:00;;;;;;;11.60;3.75;;;;;;;10.92;100.00;101357.34;4954246;28;19923;-89
2022/10/17 03:39:27;;;;;;;20.50;4.60;;;;;;;10.92;100.00;101357.34;4939050;29;20023;-89
2022/10/17 03:41:52;;;;;;;10.50;3.23;;;;;;;10.93;100.00;101347.50;4954421;28;20487;-88
2022/10/17 03:44:18;;;;;;;8.30;3.35;;;;;;;11.02;100.00;101356.44;4948847;28;20115;-89
2022/10/17 03:46:44;;;;;;;9.47;3.53;;;;;;;11.03;100.00;101350.09;4951008;29;20047;-89
2022/10/17 03:49:09;;;;;;;8.70;3.40;;;;;;;11.02;100.00;101353.78;4950300;28;20041;-89
2022/10/17 03:51:35;;;;;;;9.87;3.53;;;;;;;11.04;100.00;101341.09;4945222;29;20310;-89
2022/10/17 03:54:05;;;;;;;10.27;3.13;;;;;;;10.99;100.00;101347.72;4938916;29;20035;-91
2022/10/17 03:56:31;;;;;;;17.48;4.13;;;;;;;10.98;100.00;101343.41;4948507;28;20035;-89
2022/10/17 03:59:05;;;;;;;11.30;4.03;;;;;;;11.08;100.00;101342.50;4954238;28;20034;-89
2022/10/17 04:01:34;;;;;;;10.38;3.38;;;;;;;11.09;100.00;101339.66;4955762;29;20031;-90
2022/10/17 04:03:59;;;;;;;8.73;3.65;;;;;;;11.12;100.00;101335.84;4941496;29;20074;-89
2022/10/17 04:06:29;;;;;;;8.00;3.38;;;;;;;11.11;100.00;101337.66;4938018;29;20035;-89
2022/10/17 04:08:54;;;;;;;7.18;3.03;;;;;;;11.15;100.00;101344.41;4955280;29;20519;-89
2022/10/17 04:11:24;;;;;;;8.00;3.38;;;;;;;11.16;100.00;101337.22;4945340;28;20038;-89
2022/10/17 04:13:54;;;;;;;9.18;3.17;;;;;;;11.18;100.00;101330.72;4960440;28;20039;-89
2022/10/17 04:16:19;;;;;;;6.90;3.60;;;;;;;11.27;100.00;101334.31;4942718;29;20047;-89
2022/10/17 04:18:59;;;;;;;7.72;2.80;;;;;;;11.34;100.00;101323.88;4950116;29;20036;-89
2022/10/17 04:21:28;;;;;;;7.35;2.75;;;;;;;11.35;100.00;101326.38;4953820;29;20042;-89
2022/10/17 04:23:59;;;;;;;9.85;3.90;;;;;;;11.39;100.00;101321.56;4976276;28;20031;-88
2022/10/17 04:26:50;;;;;;;9.65;3.08;;;;;;;11.41;100.00;101316.91;4941229;29;20032;-89
2022/10/17 04:29:17;;;;;;;7.90;3.35;;;;;;;11.48;100.00;101309.13;4943978;29;20114;-89
2022/10/17 04:31:45;;;;;;;6.88;2.80;;;;;;;11.49;100.00;101300.09;4961971;28;20062;-88
2022/10/17 04:34:49;;;;;;;11.65;3.47;;;;;;;11.44;100.00;101302.38;4984626;28;20065;-88
2022/10/17 04:37:15;;;;;;;7.15;3.53;;;;;;;11.41;100.00;101303.53;4945481;28;20109;-88
2022/10/17 04:39:42;;;;;;;7.53;3.95;;;;;;;11.43;100.00;101306.06;4942664;29;20028;-89
2022/10/17 04:42:07;;;;;;;5.53;2.83;;;;;;;11.44;100.00;101297.88;4941714;29;20126;-89
2022/10/17 04:44:34;;;;;;;11.23;3.80;;;;;;;11.52;100.00;101299.75;4958660;28;20055;-89
2022/10/17 04:47:00;;;;;;;9.02;3.20;;;;;;;11.50;100.00;101280.38;4945380;29;20126;-88
2022/10/17 04:49:25;;;;;;;10.60;3.92;;;;;;;11.55;100.00;101278.91;4980569;28;20035;-89
2022/10/17 04:51:55;;;;;;;8.73;2.95;;;;;;;11.59;100.00;101284.81;4957493;28;20226;-91
2022/10/17 04:54:24;;;;;;;8.05;3.08;;;;;;;11.61;100.00;101280.97;4954788;28;20656;-89
2022/10/17 04:57:03;;;;;;;6.80;3.15;;;;;;;11.62;100.00;101276.47;4961567;28;20031;-88
2022/10/17 04:59:28;;;;;;;7.95;2.78;;;;;;;11.55;100.00;101275.41;4971260;28;20030;-90
2022/10/17 05:02:04;;;;;;;6.72;3.53;;;;;;;11.60;100.00;101278.44;4958770;28;20107;-88
2022/10/17 05:04:30;;;;;;;13.23;2.65;;;;;;;11.68;100.00;101272.31;4954547;28;20038;-88
2022/10/17 05:06:56;;;;;;;9.18;2.72;;;;;;;11.65;100.00;101262.75;4946157;29;20118;-89
2022/10/17 05:09:40;;;;;;;7.82;2.92;;;;;;;11.71;100.00;101272.84;4957454;29;20145;-88
2022/10/17 05:12:06;;;;;;;7.00;3.07;;;;;;;11.70;100.00;101263.13;4941515;29;20031;-88
2022/10/17 05:14:31;;;;;;;8.00;2.70;;;;;;;11.64;100.00;101265.63;4973070;28;20023;-88
2022/10/17 05:16:57;;;;;;;8.40;3.47;;;;;;;11.61;100.00;101269.41;4957056;28;20071;-88
2022/10/17 05:19:22;;;;;;;4.70;3.20;;;;;;;11.62;100.00;101266.59;4940323;29;20118;-88
2022/10/17 05:21:49;;;;;;;10.35;3.85;;;;;;;11.57;100.00;101260.88;4924463;29;20043;-88
2022/10/17 05:24:15;;;;;;;5.43;2.73;;;;;;;11.59;100.00;101266.91;4931757;28;20027;-89
2022/10/17 05:26:40;;;;;;;12.27;4.30;;;;;;;11.55;100.00;101264.72;4963081;28;20042;-88
2022/10/17 05:29:06;;;;;;;10.33;2.97;;;;;;;11.52;100.00;101257.84;4973425;23;21207;-71
2022/10/17 05:31:35;;;;;;;8.65;3.80;;;;;;;11.49;100.00;101265.31;4986960;28;20046;-72
2022/10/17 05:34:01;;;;;;;11.93;3.97;;;;;;;11.53;100.00;101264.03;4987538;28;20045;-72
2022/10/17 05:36:29;;;;;;;9.98;4.43;;;;;;;11.57;100.00;101266.22;4963869;28;20077;-72
2022/10/17 05:38:54;;;;;;;6.68;2.67;;;;;;;11.57;100.00;101262.72;4967928;28;20023;-72
2022/10/17 05:41:20;;;;;;;10.90;3.30;;;;;;;11.57;100.00;101260.06;4950877;28;20308;-72
2022/10/17 05:43:46;;;;;;;10.10;3.00;;;;;;;11.53;100.00;101248.81;4948237;28;20035;-72
2022/10/17 05:46:16;;;;;;;12.20;2.95;;;;;;;11.49;100.00;101257.31;4967264;28;20061;-71
2022/10/17 05:48:42;;;;;;;4.77;2.93;;;;;;;11.45;100.00;101259.47;4963662;28;20508;-72
2022/10/17 05:51:09;;;;;;;3.40;2.50;;;;;;;11.50;100.00;101256.31;4963396;28;20073;-72
2022/10/17 05:53:40;;;;;;;7.95;3.05;;;;;;;11.47;100.00;101262.81;4960129;28;20050;-72
2022/10/17 05:56:11;;;;;;;9.32;2.90;;;;;;;11.44;100.00;101260.44;4980212;23;20034;-72
2022/10/17 05:58:44;;;;;;;7.03;3.20;;;;;;;11.38;100.00;101261.91;4979826;28;20129;-71
2022/10/17 06:01:17;;;;;;;4.57;2.75;;;;;;;11.46;100.00;101266.47;4986259;28;20035;-72
2022/10/17 06:03:42;;;;;;;4.60;2.72;;;;;;;11.46;100.00;101261.13;5002183;28;20124;-71
2022/10/17 06:06:13;;;;;;;5.67;3.13;;;;;;;11.52;100.00;101267.69;4970410;28;20113;-71
2022/10/17 06:08:42;;;;;;;5.55;2.67;;;;;;;11.58;100.00;101261.72;4950830;28;20121;-71
2022/10/17 06:11:12;;;;;;;8.98;3.50;;;;;;;11.60;100.00;101259.72;4964615;28;20522;-71
2022/10/17 06:13:38;;;;;;;7.60;2.77;;;;;;;11.60;100.00;101254.38;4966654;28;20027;-71
2022/10/17 06:16:09;;;;;;;4.38;2.75;;;;;;;11.59;100.00;101258.06;4961085;28;20511;-72
2022/10/17 06:18:35;;;;;;;9.30;2.93;;;;;;;11.65;100.00;101260.09;4962271;28;20118;-72
2022/10/17 06:21:03;;;;;;;5.03;2.43;;;;;;;11.69;100.00;101248.09;4966453;28;20058;-71
2022/10/17 06:23:28;;;;;;;7.25;2.70;;;;;;;11.67;100.00;101239.38;4950496;28;20144;-71
2022/10/17 06:26:04;;;;;;;7.45;3.00;;;;;;;11.74;100.00;101243.09;4965164;28;20055;-72
2022/10/17 06:28:30;;;;;;;5.50;2.78;;;;;;;11.79;100.00;101242.63;4979137;28;20504;-72
2022/10/17 06:30:56;;;;;;;6.50;3.08;;;;;;;11.80;100.00;101239.81;4965011;28;20077;-72
2022/10/17 06:33:22;;;;;;;5.07;3.10;;;;;;;11.84;100.00;101233.13;4966387;28;20031;-71
2022/10/17 06:35:55;;;;;;;8.15;3.08;;;;;;;11.96;100.00;101232.88;4965747;28;20030;-72
2022/10/17 06:38:22;;;;;;;8.40;2.95;;;;;;;12.05;100.00;101242.63;4966130;28;20435;-71
2022/10/17 06:40:50;;;;;;;4.35;2.83;;;;;;;12.19;100.00;101242.00;4965220;28;20586;-71
2022/10/17 06:43:16;;;;;;;10.80;3.65;;;;;;;12.23;100.00;101230.00;4980442;28;20034;-71
2022/10/17 06:45:54;;;;;;;9.43;4.70;;;;;;;12.35;100.00;101208.28;4979892;28;20491;-72
2022/10/17 06:48:33;;;;;;;5.32;2.45;;;;;;;12.42;100.00;101190.56;4966008;28;20439;-72
2022/10/17 06:51:33;;;;;;;3.45;2.72;;;;;;;12.35;100.00;101179.66;4964610;28;20053;-72
2022/10/17 06:54:00;;;;;;;9.07;4.10;;;;;;;12.42;100.00;101190.56;4978774;28;20034;-71
2022/10/17 06:56:34;;;;;;;14.35;7.43;;;;;;;12.51;100.00;101178.88;4963563;28;20061;-72
2022/10/17 06:59:18;;;;;;;10.63;5.13;;;;;;;12.59;100.00;101181.53;4959613;28;20097;-72
2022/10/17 07:01:55;;;;;;;11.68;6.05;;;;;;;12.75;100.00;101183.41;4979721;28;20129;-72
2022/10/17 07:04:23;;;;;;;14.15;6.18;;;;;;;12.79;100.00;101173.22;4977833;28;20444;-72
2022/10/17 07:06:48;;;;;;;8.80;3.63;;;;;;;12.95;100.00;101162.50;4964195;28;20031;-72
2022/10/17 07:09:16;;;;;;;5.93;2.95;;;;;;;13.08;100.00;101151.25;4980257;28;20555;-71
2022/10/17 07:11:42;;;;;;;7.82;3.85;;;;;;;13.37;100.00;101142.72;4965649;28;20417;-72
2022/10/17 07:14:08;;;;;;;3.20;2.40;;;;;;;13.40;100.00;101099.44;4963159;28;20155;-72
2022/10/17 07:16:33;;;;;;;7.13;3.07;;;;;;;13.40;100.00;101088.72;4958961;28;20038;-72
2022/10/17 07:19:16;;;;;;;4.05;2.45;;;;;;;13.60;100.00;101099.91;4963203;28;20038;-72
2022/10/17 07:21:41;;;;;;;6.87;2.17;;;;;;;13.79;100.00;101093.28;4964828;28;20065;-72
2022/10/17 07:24:09;;;;;;;4.18;2.70;;;;;;;13.63;100.00;101071.88;4980863;28;20037;-71
2022/10/17 07:26:35;;;;;;;4.43;2.72;;;;;;;13.82;100.00;101092.91;4964072;28;20517;-72
2022/10/17 07:29:01;;;;;;;6.20;2.75;;;;;;;14.24;100.00;101097.03;4961914;28;20357;-72
2022/10/17 07:31:32;;;;;;;4.45;2.53;;;;;;;14.38;100.00;101049.78;4965248;28;20069;-72
2022/10/17 07:34:01;;;;;;;7.03;2.97;;;;;;;14.50;100.00;101048.31;4949238;28;20066;-72
2022/10/17 07:36:26;;;;;;;4.75;2.20;;;;;;;14.51;100.00;101033.03;4964709;28;20062;-72
2022/10/17 07:38:53;;;;;;;4.90;2.13;;;;;;;14.70;100.00;101051.38;4964705;28;20054;-72
2022/10/17 07:41:19;;;;;;;5.88;2.67;;;;;;;14.66;100.00;101014.31;4966019;28;20027;-72
2022/10/17 07:43:45;;;;;;;2.70;1.95;;;;;;;14.47;100.00;101029.03;4965610;28;20887;-72
2022/10/17 07:46:11;;;;;;;4.70;2.17;;;;;;;14.41;100.00;101016.34;4965092;28;20089;-72
2022/10/17 07:48:38;;;;;;;;;;;;;;;14.26;100.00;101061.97;4981366;28;20108;-72
2022/10/17 07:51:05;;;;;;;5.82;2.75;;;;;;;14.19;100.00;101095.88;4961863;28;20285;-72
2022/10/17 07:53:30;;;;;;;3.08;1.88;;;;;;;14.55;100.00;101131.09;4960173;28;20038;-72
2022/10/17 07:55:56;;;;;;;6.95;2.42;;;;;;;14.61;100.00;101099.97;4964195;28;20109;-72
2022/10/17 07:58:21;;;;;;;5.00;2.10;;;;;;;14.50;100.00;101077.03;4962843;28;20038;-72
2022/10/17 08:00:47;;;;;;;5.63;3.33;;;;;;;14.78;100.00;101072.78;4980940;28;20038;-72
2022/10/17 08:03:13;;;;;;;;;;;;;;;14.45;100.00;101029.22;4965009;28;20035;-72
2022/10/17 08:05:38;;;;;;;;;;;;;;;14.27;100.00;101087.78;4960122;28;19916;-72
2022/10/17 08:08:03;;;;;;;4.87;2.73;;;;;;;14.05;100.00;101118.97;4961925;28;19957;-72
2022/10/17 08:10:29;;;;;;;3.10;2.40;;;;;;;14.09;100.00;101184.72;4966145;28;20038;-72
2022/10/17 08:12:55;;;;;;;4.33;2.57;;;;;;;14.26;100.00;101202.44;4962898;28;20041;-72
2022/10/17 08:15:22;;;;;;;17.15;10.43;;;;;;;14.68;100.00;101187.78;4962925;28;20034;-72
2022/10/17 08:17:47;;;;;;;4.00;3.08;;;;;;;15.40;100.00;101202.63;4964389;28;20034;-72
2022/10/17 08:20:13;;;;;;;2.40;2.00;;;;;;;15.90;100.00;101077.28;4964691;28;20046;-73
2022/10/17 08:22:38;;;;;;;7.93;2.47;;;;;;;16.65;100.00;100970.00;4964551;28;20088;-72
2022/10/17 08:25:04;;;;;;;3.70;2.10;;;;;;;16.36;100.00;100901.78;4962612;28;20085;-72
2022/10/17 08:27:31;;;;;;;4.38;2.50;;;;;;;16.32;100.00;100913.13;4961916;28;20121;-72
2022/10/17 08:29:57;;;;;;;5.80;2.53;;;;;;;16.22;100.00;100846.16;4965553;28;20030;-72
2022/10/17 08:32:28;;;;;;;3.63;2.47;;;;;;;15.38;100.00;100895.28;4969923;28;20081;-72
2022/10/17 08:34:54;;;;;;;9.13;2.75;;;;;;;15.15;100.00;101043.38;4966415;28;20114;-72
2022/10/17 08:37:20;;;;;;;6.13;2.70;;;;;;;15.19;100.00;101134.25;4967269;28;20538;-72
2022/10/17 08:39:46;;;;;;;4.80;2.90;;;;;;;15.06;100.00;101163.63;4967663;28;20042;-72
2022/10/17 08:42:44;;;;;;;5.25;2.80;;;;;;;15.17;100.00;101200.84;4978965;28;20400;-72
2022/10/17 08:45:27;;;;;;;4.32;2.75;;;;;;;14.84;100.00;101202.09;4970905;28;20046;-72
2022/10/17 08:48:01;;;;;;;4.25;2.70;;;;;;;14.86;100.00;101280.72;4979740;28;20073;-72
2022/10/17 08:50:35;;;;;;;5.35;2.70;;;;;;;14.94;100.00;101312.94;4967764;28;20502;-72
2022/10/17 08:53:13;;;;;;;5.65;2.92;;;;;;;15.02;100.00;101314.72;4959672;28;20313;-72
2022/10/17 08:55:43;;;;;;;6.45;2.97;;;;;;;15.28;100.00;101314.38;4960462;28;20071;-72
2022/10/17 08:58:14;;;;;;;5.75;3.33;;;;;;;15.29;100.00;101284.63;4960504;28;20031;-72
2022/10/17 09:00:49;;;;;;;4.07;2.90;;;;;;;15.41;100.00;101302.00;4962991;28;20038;-72
2022/10/17 09:03:34;;;;;;;5.60;2.75;;;;;;;15.29;100.00;101273.00;4963408;28;20118;-72
2022/10/17 09:06:16;;;;;;;3.50;2.67;;;;;;;15.25;100.00;101293.22;4980465;28;20039;-73
2022/10/17 09:08:44;;;;;;;9.55;5.40;;;;;;;15.27;100.00;101307.34;4964121;28;20050;-72
2022/10/17 09:11:21;;;;;;;11.73;3.20;;;;;;;15.40;100.00;101321.00;4969119;28;20409;-72
2022/10/17 09:13:59;;;;;;;13.18;6.07;;;;;;;15.60;100.00;101297.97;4967128;28;20069;-72
2022/10/17 09:16:43;;;;;;;4.45;3.80;;;;;;;16.32;100.00;101311.88;4966840;28;20054;-72
2022/10/17 09:19:18;;;;;;;5.00;2.70;;;;;;;16.05;100.00;101241.50;4960406;28;20035;-72
2022/10/17 09:21:50;;;;;;;6.18;2.75;;;;;;;16.01;100.00;101241.06;4965501;28;20039;-72
2022/10/17 09:24:42;;;;;;;6.28;2.60;;;;;;;16.64;100.00;101208.22;4964345;28;20050;-72
2022/10/17 09:27:51;;;;;;;3.83;2.78;;;;;;;17.54;100.00;101187.03;4947085;28;20499;-72
2022/10/17 09:30:41;;;;;;;4.10;2.70;;;;;;;17.53;100.00;101018.81;4962411;28;20175;-72
2022/10/17 09:33:16;;;;;;;2.55;2.33;;;;;;;17.04;100.00;100955.94;4963371;28;20050;-72
2022/10/17 09:35:44;;;;;;;4.63;2.53;;;;;;;17.08;100.00;101037.28;4966463;28;20419;-72
2022/10/17 09:38:21;;;;;;;6.28;3.53;;;;;;;17.19;100.00;101084.47;4969064;28;20023;-72
2022/10/17 09:40:57;;;;;;;3.90;3.00;;;;;;;17.70;100.00;101074.16;4963751;28;20054;-72
2022/10/17 09:43:24;;;;;;;4.93;3.08;;;;;;;16.96;100.00;101014.59;4967192;28;20035;-72
2022/10/17 09:46:19;;;;;;;6.72;3.35;;;;;;;17.59;100.00;101153.00;4963238;28;20043;-72
2022/10/17 09:48:56;;;;;;;6.80;3.67;;;;;;;18.21;100.00;101058.53;4965278;28;20488;-72
2022/10/17 09:51:22;;;;;;;7.80;3.15;;;;;;;18.88;100.00;100978.28;4965146;28;20448;-72
2022/10/17 09:53:55;;;;;;;3.72;2.72;;;;;;;18.94;100.00;100886.28;4965998;28;20023;-73
2022/10/17 09:56:21;;;;;;;12.77;4.30;;;;;;;18.85;100.00;100832.63;4965224;28;20030;-72
2022/10/17 09:58:56;;;;;;;10.45;3.70;;;;;;;18.34;100.00;100839.63;4964793;28;20404;-72
2022/10/17 10:01:27;;;;;;;4.60;3.03;;;;;;;18.26;100.00;100996.56;4962745;28;20027;-72
2022/10/17 10:04:14;;;;;;;5.72;3.30;;;;;;;18.17;100.00;100976.19;4964731;28;20101;-72
2022/10/17 10:06:59;;;;;;;3.65;3.20;;;;;;;17.45;100.00;100997.41;4958875;28;20038;-72
2022/10/17 10:09:29;;;;;;;6.65;3.08;;;;;;;17.15;100.00;101059.75;4963981;28;20077;-72
2022/10/17 10:11:55;;;;;;;9.73;3.25;;;;;;;17.37;100.00;101191.88;4964962;28;20038;-72
2022/10/17 10:14:24;;;;;;;5.97;3.22;;;;;;;17.51;100.00;101196.34;4963940;28;20362;-72
2022/10/17 10:16:52;;;;;;;6.03;3.00;;;;;;;17.50;100.00;101189.28;4964831;28;20062;-72
2022/10/17 10:19:30;;;;;;;3.55;3.00;;;;;;;17.77;100.00;101219.16;4965133;28;20098;-72
2022/10/17 10:21:59;;;;;;;6.05;3.33;;;;;;;18.29;100.00;101228.59;4962978;28;20401;-72
2022/10/17 10:24:26;;;;;;;3.10;2.33;;;;;;;18.94;100.00;101170.34;4982520;28;20535;-72
2022/10/17 10:26:53;;;;;;;4.32;2.50;;;;;;;19.25;100.00;100986.69;4964480;28;20050;-72
2022/10/17 10:29:34;;;;;;;5.35;2.95;;;;;;;19.07;100.00;100900.78;4963502;28;20035;-72
2022/10/17 10:32:26;;;;;;;5.95;2.58;;;;;;;18.66;100.00;100926.25;4979171;28;20153;-72
2022/10/17 10:34:59;;;;;;;4.63;2.53;;;;;;;18.61;100.00;101116.16;4957358;28;20093;-72
2022/10/17 10:37:28;;;;;;;8.50;4.43;;;;;;;18.85;100.00;101108.53;4965024;28;20103;-72
2022/10/17 10:40:02;;;;;;;5.90;2.78;;;;;;;18.80;100.00;101089.38;4962650;28;20027;-72
2022/10/17 10:42:37;;;;;;;6.85;3.17;;;;;;;18.71;100.00;101178.81;4964282;28;20045;-72
2022/10/17 10:45:17;;;;;;;5.47;3.08;;;;;;;19.14;100.00;101124.31;4965682;28;20038;-72
2022/10/17 10:48:00;;;;;;;4.70;2.50;;;;;;;19.74;100.00;101066.50;4962003;28;20035;-72
2022/10/17 10:50:32;;;;;;;6.53;3.05;;;;;;;19.79;100.00;101029.59;4964246;28;20069;-72
2022/10/17 10:53:13;;;;;;;6.78;2.90;;;;;;;19.93;100.00;101024.09;4963180;28;20030;-72
2022/10/17 10:56:04;;;;;;;7.50;2.92;;;;;;;19.29;100.00;100909.41;4965991;28;20038;-73
2022/10/17 10:58:44;;;;;;;5.55;3.10;;;;;;;19.17;100.00;101053.56;4973317;28;20393;-72
2022/10/17 11:01:21;;;;;;;6.03;2.90;;;;;;;19.39;100.00;101148.84;4961335;28;20483;-73
2022/10/17 11:03:49;;;;;;;6.72;2.97;;;;;;;19.27;100.00;101030.59;4963171;28;20027;-72
2022/10/17 11:06:26;;;;;;;9.75;3.13;;;;;;;18.69;100.00;101126.78;4979547;28;20031;-72
2022/10/17 11:09:11;;;;;;;8.00;3.13;;;;;;;18.67;100.00;101220.81;4966360;28;20042;-73
2022/10/17 11:11:44;;;;;;;6.45;2.92;;;;;;;18.84;100.00;101274.56;4958125;28;20037;-72
2022/10/17 11:14:34;;;;;;;5.40;3.75;;;;;;;18.75;100.00;101245.00;4960259;28;20500;-72
2022/10/17 11:17:11;;;;;;;8.23;3.28;;;;;;;18.67;100.00;101241.63;4977395;28;20431;-73
2022/10/17 11:19:48;;;;;;;6.38;3.00;;;;;;;18.60;100.00;101282.16;4960687;28;20070;-73
2022/10/17 11:22:28;;;;;;;6.85;3.72;;;;;;;18.67;100.00;101307.34;4960774;28;20046;-72
2022/10/17 11:25:02;;;;;;;4.05;3.10;;;;;;;18.73;100.00;101311.09;4960083;28;20134;-72
2022/10/17 11:27:29;;;;;;;6.75;3.47;;;;;;;18.77;100.00;101344.88;4960530;28;20035;-73
2022/10/17 11:29:56;;;;;;;6.45;3.08;;;;;;;18.70;100.00;101327.75;4963034;28;20451;-73
2022/10/17 11:32:45;;;;;;;5.70;2.92;;;;;;;18.65;100.00;101346.47;4981320;28;20510;-72
2022/10/17 11:35:24;;;;;;;4.72;3.30;;;;;;;18.51;100.00;101378.84;4963493;28;20043;-72
2022/10/17 11:38:18;;;;;;;4.88;3.30;;;;;;;18.60;100.00;101414.66;4963640;28;20042;-72